West Dundee, Illinois
Current Conditions -  °F | °C
As of 2:52 AM on Friday 24 Oct 2014 (Local Time) from KDPA Reporting Station
Overcast Overcast  
Wind Chill: 53°   Ceiling: 2100
Heat Index: 53°   Visibility: 10mi
Dew Point: 45°   Wind: 6mph
Humidity: 74%   Direction: 180°S
Pressure: 30.04"   Gusts: NA
Location:  42.1081°N, 88.3234°W
Report Text: KDPA 240752Z 18005KT 10SM OVC021 12/07 A3004 RMK AO2 SLP172 T01170072
Loading
Personal Weather Stations






























Interactive Weather Map
Tropical Storm Tracking
New forecast layout! Learn more

10-Day Weather Forecast

Advertisements
Track Severe Weather on mobile